createdAt,value
2022-08-11T00:02:28.777Z,15.77
2022-08-11T00:04:57.903Z,15.73
2022-08-11T00:07:25.333Z,15.69
2022-08-11T00:09:53.570Z,15.67
2022-08-11T00:12:20.699Z,15.66
2022-08-11T00:14:56.967Z,15.68
2022-08-11T00:17:28.459Z,15.68
2022-08-11T00:20:12.617Z,15.64
2022-08-11T00:22:44.377Z,15.63
2022-08-11T00:25:19.331Z,15.59
2022-08-11T00:27:47.370Z,15.56
2022-08-11T00:30:14.999Z,15.59
2022-08-11T00:32:44.156Z,15.58
2022-08-11T00:35:56.095Z,15.56
2022-08-11T00:38:06.919Z,15.52
2022-08-11T00:40:45.834Z,15.49
2022-08-11T00:43:30.635Z,15.47
2022-08-11T00:46:16.858Z,15.42
2022-08-11T00:49:14.042Z,15.43
2022-08-11T00:52:04.201Z,15.38
2022-08-11T00:54:38.850Z,15.35
2022-08-11T00:57:36.791Z,15.33
2022-08-11T01:00:16.674Z,15.32
2022-08-11T01:03:21.594Z,15.30
2022-08-11T01:06:21.105Z,15.30
2022-08-11T01:09:20.971Z,15.34
2022-08-11T01:12:13.588Z,15.32
2022-08-11T01:14:48.979Z,15.30
2022-08-11T01:17:30.722Z,15.29
2022-08-11T01:20:48.500Z,15.27
2022-08-11T01:23:33.096Z,15.27
2022-08-11T01:26:18.336Z,15.26
2022-08-11T01:29:07.247Z,15.25
2022-08-11T01:31:55.611Z,15.24
2022-08-11T01:34:26.654Z,15.23
2022-08-11T01:37:20.805Z,15.20
2022-08-11T01:40:05.419Z,15.17
2022-08-11T01:43:48.155Z,15.14
2022-08-11T01:46:52.057Z,15.07
2022-08-11T01:50:07.738Z,15.04
2022-08-11T01:52:53.972Z,14.99
2022-08-11T01:55:29.470Z,14.94
2022-08-11T01:58:21.841Z,14.92
2022-08-11T02:01:40.905Z,14.90
2022-08-11T02:04:19.874Z,14.87
2022-08-11T02:07:03.144Z,14.83
2022-08-11T02:09:54.437Z,14.79
2022-08-11T02:12:42.683Z,14.76
2022-08-11T02:15:55.138Z,14.73
2022-08-11T02:18:52.953Z,14.73
2022-08-11T02:21:48.355Z,14.71
2022-08-11T02:24:24.979Z,14.69
2022-08-11T02:27:14.181Z,14.70
2022-08-11T02:29:49.692Z,14.65
2022-08-11T02:33:07.384Z,14.63
2022-08-11T02:35:58.450Z,14.58
2022-08-11T02:38:47.198Z,14.51
2022-08-11T02:41:44.304Z,14.52
2022-08-11T02:44:29.839Z,14.52
2022-08-11T02:47:30.721Z,14.47
2022-08-11T02:50:07.278Z,14.45
2022-08-11T02:52:45.498Z,14.42
2022-08-11T02:55:48.897Z,14.41
2022-08-11T02:58:42.834Z,14.38
2022-08-11T03:01:41.085Z,14.37
2022-08-11T03:04:14.807Z,14.34
2022-08-11T03:06:52.275Z,14.31
2022-08-11T03:09:40.841Z,14.30
2022-08-11T03:12:37.580Z,14.30
2022-08-11T03:15:25.583Z,14.40
2022-08-11T03:18:10.627Z,14.38
2022-08-11T03:20:51.648Z,14.32
2022-08-11T03:23:19.712Z,14.30
2022-08-11T03:25:51.757Z,14.26
2022-08-11T03:28:30.279Z,14.19
2022-08-11T03:31:16.227Z,14.17
2022-08-11T03:34:09.194Z,14.12
2022-08-11T03:37:06.807Z,14.08
2022-08-11T03:39:37.169Z,14.06
2022-08-11T03:42:41.366Z,13.99
2022-08-11T03:45:35.252Z,13.96
2022-08-11T03:48:28.182Z,13.93
2022-08-11T03:51:14.142Z,13.91
2022-08-11T03:53:57.957Z,13.88
2022-08-11T03:56:42.148Z,13.89
2022-08-11T03:59:23.762Z,13.87
2022-08-11T04:02:27.974Z,13.87
2022-08-11T04:05:21.395Z,13.84
2022-08-11T04:08:19.719Z,13.80
2022-08-11T04:11:04.783Z,13.78
2022-08-11T04:14:25.007Z,13.76
2022-08-11T04:17:23.047Z,13.75
2022-08-11T04:20:13.174Z,13.68
2022-08-11T04:22:51.764Z,13.64
2022-08-11T04:25:24.643Z,13.61
2022-08-11T04:28:28.518Z,13.57
2022-08-11T04:31:11.059Z,13.54
2022-08-11T04:34:21.544Z,13.55
2022-08-11T04:37:23.500Z,13.55
2022-08-11T04:40:19.039Z,13.52
2022-08-11T04:43:28.477Z,13.49
2022-08-11T04:46:36.418Z,13.53
2022-08-11T04:49:43.085Z,13.57
2022-08-11T04:53:01.082Z,13.58
2022-08-11T04:56:22.866Z,13.57
2022-08-11T04:59:23.692Z,13.54
2022-08-11T05:02:18.278Z,13.56
2022-08-11T05:05:22.015Z,13.58
2022-08-11T05:07:53.595Z,13.58
2022-08-11T05:11:05.057Z,13.53
2022-08-11T05:13:55.553Z,13.61
2022-08-11T05:16:48.426Z,13.65
2022-08-11T05:19:40.561Z,13.67
2022-08-11T05:22:29.471Z,13.71
2022-08-11T05:26:44.377Z,13.78
2022-08-11T05:29:19.333Z,13.88
2022-08-11T05:32:15.673Z,13.95
2022-08-11T05:34:54.226Z,14.06
2022-08-11T05:37:30.025Z,14.13
2022-08-11T05:40:24.136Z,14.24
2022-08-11T05:43:13.980Z,14.34
2022-08-11T05:46:04.540Z,14.48
2022-08-11T05:48:55.589Z,14.64
2022-08-11T05:51:54.635Z,14.84
2022-08-11T05:54:43.028Z,15.06
2022-08-11T05:57:50.016Z,15.32
2022-08-11T06:00:14.956Z,15.50
2022-08-11T06:02:43.427Z,15.69
2022-08-11T06:05:11.564Z,15.85
2022-08-11T06:07:49.327Z,16.04
2022-08-11T06:10:27.596Z,16.33
2022-08-11T06:12:56.012Z,16.62
2022-08-11T06:15:23.280Z,16.82
2022-08-11T06:17:51.309Z,17.12
2022-08-11T06:20:21.369Z,17.32
2022-08-11T06:22:56.744Z,17.51
2022-08-11T06:25:30.213Z,17.70
2022-08-11T06:27:57.426Z,17.96
2022-08-11T06:30:42.230Z,18.33
2022-08-11T06:33:16.651Z,18.59
2022-08-11T06:36:11.679Z,18.88
2022-08-11T06:38:59.661Z,19.12
2022-08-11T06:41:34.452Z,19.26
2022-08-11T06:44:16.580Z,19.45
2022-08-11T06:46:47.745Z,19.66
2022-08-11T06:49:35.049Z,19.90
2022-08-11T06:52:04.782Z,20.12
2022-08-11T06:54:41.513Z,20.43
2022-08-11T06:57:32.464Z,20.78
2022-08-11T07:00:22.187Z,21.17
2022-08-11T07:02:52.071Z,21.71
2022-08-11T07:05:28.175Z,22.19
2022-08-11T07:08:58.310Z,22.60
2022-08-11T07:12:05.362Z,22.90
2022-08-11T07:14:51.853Z,23.00
2022-08-11T07:17:25.773Z,23.03
2022-08-11T07:20:23.806Z,23.05
2022-08-11T07:23:16.808Z,23.20
2022-08-11T07:26:07.314Z,23.26
2022-08-11T07:28:55.635Z,23.31
2022-08-11T07:31:32.936Z,23.41
2022-08-11T07:34:14.619Z,23.38
2022-08-11T07:36:54.397Z,23.45
2022-08-11T07:39:25.856Z,23.57
2022-08-11T07:41:54.520Z,23.71
2022-08-11T07:44:28.336Z,24.04
2022-08-11T07:47:18.669Z,24.38
2022-08-11T07:50:07.523Z,24.72
2022-08-11T07:52:38.299Z,24.93
2022-08-11T07:55:17.050Z,25.09
2022-08-11T07:58:16.424Z,25.29
2022-08-11T08:01:21.690Z,25.53
2022-08-11T08:04:09.710Z,25.84
2022-08-11T08:06:55.830Z,26.23
2022-08-11T08:09:42.145Z,26.60
2022-08-11T08:12:28.294Z,26.95
2022-08-11T08:15:15.179Z,27.24
2022-08-11T08:18:09.915Z,27.54
2022-08-11T08:20:54.716Z,27.73
2022-08-11T08:23:35.061Z,28.03
2022-08-11T08:26:30.248Z,28.29
2022-08-11T08:29:20.807Z,28.58
2022-08-11T08:31:49.440Z,28.74
2022-08-11T08:34:17.164Z,28.68
2022-08-11T08:36:47.694Z,28.81
2022-08-11T08:39:16.570Z,29.01
2022-08-11T08:41:44.837Z,29.33
2022-08-11T08:44:37.793Z,29.59
2022-08-11T08:47:01.114Z,29.67
2022-08-11T08:49:41.988Z,30.01
2022-08-11T08:52:30.827Z,30.39
2022-08-11T08:55:04.437Z,30.49
2022-08-11T08:57:39.419Z,30.76
2022-08-11T09:00:13.009Z,30.81
2022-08-11T09:02:43.074Z,30.80
2022-08-11T09:05:10.803Z,30.95
2022-08-11T09:07:39.371Z,31.08
2022-08-11T09:10:08.738Z,31.07
2022-08-11T09:12:39.229Z,30.95
2022-08-11T09:15:09.597Z,30.99
2022-08-11T09:17:47.030Z,31.01
2022-08-11T09:20:22.641Z,31.32
2022-08-11T09:24:06.436Z,31.17
2022-08-11T09:26:17.888Z,31.16
2022-08-11T09:28:46.015Z,31.46
2022-08-11T09:31:14.291Z,31.79
2022-08-11T09:33:42.832Z,32.09
2022-08-11T09:36:30.639Z,32.35
2022-08-11T09:39:16.986Z,32.34
2022-08-11T09:42:00.730Z,32.42
2022-08-11T09:44:49.215Z,32.37
2022-08-11T09:47:25.567Z,32.81
2022-08-11T09:50:02.854Z,33.05
2022-08-11T09:52:52.158Z,33.37
2022-08-11T09:55:27.463Z,33.62
2022-08-11T09:58:12.323Z,33.38
2022-08-11T10:01:02.202Z,33.54
2022-08-11T10:03:31.891Z,33.63
2022-08-11T10:06:34.146Z,33.64
2022-08-11T10:09:05.369Z,33.55
2022-08-11T10:11:36.511Z,33.77
2022-08-11T10:14:33.520Z,33.93
2022-08-11T10:17:06.358Z,34.00
2022-08-11T10:19:36.708Z,34.22
2022-08-11T10:22:24.313Z,34.20
2022-08-11T10:25:14.991Z,33.99
2022-08-11T10:28:17.524Z,33.76
2022-08-11T10:30:52.536Z,34.03
2022-08-11T10:33:41.782Z,33.72
2022-08-11T10:36:25.554Z,33.82
2022-08-11T10:38:52.600Z,33.61
2022-08-11T10:42:02.756Z,33.89
2022-08-11T10:44:25.760Z,34.01
2022-08-11T10:47:11.471Z,34.37
2022-08-11T10:49:38.423Z,34.15
2022-08-11T10:52:23.868Z,34.10
2022-08-11T10:55:09.288Z,34.17
2022-08-11T10:58:04.253Z,34.34
2022-08-11T11:00:32.776Z,34.21
2022-08-11T11:03:22.298Z,34.03
2022-08-11T11:06:12.591Z,33.97
2022-08-11T11:08:55.518Z,33.98
2022-08-11T11:12:07.492Z,34.23
2022-08-11T11:14:58.757Z,34.68
2022-08-11T11:17:57.053Z,34.44
2022-08-11T11:20:38.757Z,35.06
2022-08-11T11:23:18.574Z,34.81
2022-08-11T11:26:41.242Z,34.50
2022-08-11T11:29:31.544Z,34.45
2022-08-11T11:32:31.530Z,34.57
2022-08-11T11:35:01.235Z,34.80
2022-08-11T11:37:32.485Z,34.26
2022-08-11T11:40:01.121Z,33.89
2022-08-11T11:42:29.460Z,33.99
2022-08-11T11:45:00.440Z,34.20
2022-08-11T11:47:28.599Z,34.42
2022-08-11T11:49:55.776Z,34.37
2022-08-11T11:52:23.860Z,34.13
2022-08-11T11:54:55.492Z,34.40
2022-08-11T11:57:41.568Z,34.38
2022-08-11T12:00:44.622Z,34.65
2022-08-11T12:03:12.154Z,34.49
2022-08-11T12:05:42.135Z,34.62
2022-08-11T12:08:16.365Z,34.78
2022-08-11T12:10:44.694Z,34.92
2022-08-11T12:13:31.012Z,34.51
2022-08-11T12:16:33.538Z,34.54
2022-08-11T12:18:53.456Z,34.48
2022-08-11T12:21:21.102Z,34.72
2022-08-11T12:24:07.597Z,34.57
2022-08-11T12:27:14.884Z,34.84
2022-08-11T12:29:41.358Z,35.36
2022-08-11T12:32:11.178Z,34.77
2022-08-11T12:34:37.904Z,34.63
2022-08-11T12:37:13.778Z,34.74
2022-08-11T12:40:16.219Z,34.70
2022-08-11T12:43:21.220Z,34.72
2022-08-11T12:45:55.518Z,34.84
2022-08-11T12:49:00.001Z,35.03
2022-08-11T12:52:11.887Z,34.98
2022-08-11T12:54:52.586Z,35.18
2022-08-11T12:57:50.411Z,35.40
2022-08-11T13:00:36.984Z,35.19
2022-08-11T13:03:25.678Z,34.93
2022-08-11T13:05:55.569Z,34.91
2022-08-11T13:08:26.669Z,34.92
2022-08-11T13:11:14.010Z,34.93
2022-08-11T13:13:54.256Z,34.83
2022-08-11T13:16:31.719Z,34.78
2022-08-11T13:19:01.066Z,35.16
2022-08-11T13:21:28.689Z,34.90
2022-08-11T13:24:00.734Z,34.94
2022-08-11T13:26:41.629Z,35.00
2022-08-11T13:29:17.308Z,34.83
2022-08-11T13:31:44.848Z,35.12
2022-08-11T13:34:12.281Z,35.01
2022-08-11T13:36:39.420Z,34.76
2022-08-11T13:39:06.589Z,34.67
2022-08-11T13:41:39.600Z,34.47
2022-08-11T13:44:15.643Z,34.42
2022-08-11T13:46:46.125Z,34.40
2022-08-11T13:49:17.471Z,34.64
2022-08-11T13:51:44.572Z,34.49
2022-08-11T13:54:19.924Z,34.45
2022-08-11T13:56:49.620Z,34.34
2022-08-11T13:59:20.411Z,34.30
2022-08-11T14:02:22.550Z,34.23
2022-08-11T14:04:55.624Z,33.99
2022-08-11T14:07:24.960Z,33.95
2022-08-11T14:09:59.970Z,33.66
2022-08-11T14:12:48.530Z,33.43
2022-08-11T14:15:25.195Z,33.60
2022-08-11T14:18:03.342Z,33.58
2022-08-11T14:20:50.738Z,33.59
2022-08-11T14:23:19.563Z,33.59
2022-08-11T14:26:07.342Z,33.34
2022-08-11T14:28:44.463Z,33.55
2022-08-11T14:31:14.468Z,33.46
2022-08-11T14:34:00.107Z,33.43
2022-08-11T14:36:35.611Z,33.32
2022-08-11T14:39:07.122Z,32.99
2022-08-11T14:42:10.960Z,33.01
2022-08-11T14:45:01.869Z,32.77
2022-08-11T14:47:33.030Z,32.93
2022-08-11T14:50:10.012Z,32.76
2022-08-11T14:52:50.331Z,32.70
2022-08-11T14:55:37.889Z,32.66
2022-08-11T14:58:05.923Z,32.63
2022-08-11T15:00:34.755Z,32.73
2022-08-11T15:03:10.949Z,32.71
2022-08-11T15:05:55.766Z,32.63
2022-08-11T15:08:47.298Z,32.50
2022-08-11T15:11:34.998Z,32.33
2022-08-11T15:14:04.592Z,32.12
2022-08-11T15:16:50.781Z,32.21
2022-08-11T15:19:21.428Z,32.12
2022-08-11T15:22:08.502Z,32.03
2022-08-11T15:24:36.680Z,31.87
2022-08-11T15:27:27.775Z,31.82
2022-08-11T15:30:26.855Z,31.85
2022-08-11T15:33:19.534Z,31.84
2022-08-11T15:36:18.867Z,31.81
2022-08-11T15:38:55.800Z,31.68
2022-08-11T15:41:58.523Z,31.59
2022-08-11T15:45:02.311Z,31.51
2022-08-11T15:47:41.758Z,31.53
2022-08-11T15:50:14.687Z,31.54
2022-08-11T15:52:49.813Z,31.56
2022-08-11T15:55:18.482Z,31.35
2022-08-11T15:58:06.358Z,31.36
2022-08-11T16:00:58.705Z,31.33
2022-08-11T16:04:05.698Z,31.20
2022-08-11T16:06:34.673Z,31.10
2022-08-11T16:09:07.441Z,31.00
2022-08-11T16:11:46.289Z,30.86
2022-08-11T16:14:34.351Z,30.82
2022-08-11T16:17:03.166Z,30.82
2022-08-11T16:19:34.706Z,30.70
2022-08-11T16:22:03.138Z,30.71
2022-08-11T16:27:04.505Z,30.73
2022-08-11T16:27:23.911Z,30.70
2022-08-11T16:29:51.941Z,30.59
2022-08-11T16:32:23.652Z,30.51
2022-08-11T16:35:29.878Z,30.47
2022-08-11T16:38:25.881Z,30.50
2022-08-11T16:40:54.616Z,30.29
2022-08-11T16:43:47.501Z,30.30
2022-08-11T16:46:36.730Z,30.20
2022-08-11T16:49:06.677Z,30.14
2022-08-11T16:51:33.901Z,30.06
2022-08-11T16:54:05.097Z,30.02
2022-08-11T16:56:37.387Z,29.96
2022-08-11T16:59:18.180Z,29.96
2022-08-11T17:01:47.504Z,29.84
2022-08-11T17:04:55.888Z,29.79
2022-08-11T17:07:43.491Z,29.73
2022-08-11T17:10:56.465Z,29.68
2022-08-11T17:13:31.799Z,29.64
2022-08-11T17:16:09.093Z,29.56
2022-08-11T17:18:43.970Z,29.46
2022-08-11T17:21:20.321Z,29.40
2022-08-11T17:24:03.872Z,29.33
2022-08-11T17:26:58.737Z,29.25
2022-08-11T17:29:25.268Z,29.16
2022-08-11T17:32:12.736Z,29.09
2022-08-11T17:35:00.567Z,28.97
2022-08-11T17:37:28.659Z,28.92
2022-08-11T17:39:56.159Z,28.83
2022-08-11T17:42:45.964Z,28.73
2022-08-11T17:45:31.885Z,28.70
2022-08-11T17:48:19.813Z,28.66
2022-08-11T17:50:49.251Z,28.53
2022-08-11T17:53:35.824Z,28.56
2022-08-11T17:56:33.861Z,28.37
2022-08-11T17:59:21.740Z,28.27
2022-08-11T18:01:53.962Z,28.07
2022-08-11T18:04:22.439Z,28.00
2022-08-11T18:06:52.133Z,27.91
2022-08-11T18:09:40.629Z,27.71
2022-08-11T18:12:28.397Z,27.59
2022-08-11T18:15:16.071Z,27.44
2022-08-11T18:18:02.326Z,27.29
2022-08-11T18:20:47.796Z,27.09
2022-08-11T18:23:41.703Z,26.99
2022-08-11T18:26:36.172Z,26.81
2022-08-11T18:29:24.965Z,26.62
2022-08-11T18:32:12.568Z,26.32
2022-08-11T18:35:08.664Z,26.06
2022-08-11T18:37:55.868Z,25.84
2022-08-11T18:40:44.939Z,25.61
2022-08-11T18:43:33.908Z,25.43
2022-08-11T18:46:25.401Z,25.29
2022-08-11T18:49:16.538Z,25.05
2022-08-11T18:52:09.240Z,24.76
2022-08-11T18:54:57.127Z,24.55
2022-08-11T18:57:50.056Z,24.48
2022-08-11T19:00:41.409Z,24.33
2022-08-11T19:03:28.313Z,24.19
2022-08-11T19:06:38.754Z,23.91
2022-08-11T19:09:25.560Z,23.64
2022-08-11T19:12:13.573Z,23.42
2022-08-11T19:15:00.479Z,23.23
2022-08-11T19:17:48.702Z,23.02
2022-08-11T19:20:38.158Z,22.86
2022-08-11T19:23:27.665Z,22.67
2022-08-11T19:26:13.241Z,22.53
2022-08-11T19:29:01.197Z,22.37
2022-08-11T19:31:48.139Z,22.27
2022-08-11T19:34:35.992Z,22.11
2022-08-11T19:37:24.976Z,21.97
2022-08-11T19:40:12.759Z,21.84
2022-08-11T19:43:00.823Z,21.71
2022-08-11T19:45:52.131Z,21.60
2022-08-11T19:48:41.507Z,21.49
2022-08-11T19:51:29.017Z,21.43
2022-08-11T19:54:16.212Z,21.35
2022-08-11T19:57:03.203Z,21.23
2022-08-11T19:59:49.957Z,21.14
2022-08-11T20:02:35.690Z,21.07
2022-08-11T20:05:21.183Z,20.88
2022-08-11T20:08:07.809Z,20.74
2022-08-11T20:10:54.711Z,20.60
2022-08-11T20:13:42.663Z,20.51
2022-08-11T20:16:30.943Z,20.41
2022-08-11T20:19:18.078Z,20.31
2022-08-11T20:22:08.272Z,20.27
2022-08-11T20:24:56.714Z,20.22
2022-08-11T20:27:43.266Z,20.16
2022-08-11T20:30:28.899Z,20.13
2022-08-11T20:33:14.308Z,20.10
2022-08-11T20:35:59.302Z,20.04
2022-08-11T20:38:49.896Z,20.00
2022-08-11T20:41:58.159Z,19.96
2022-08-11T20:44:43.858Z,19.91
2022-08-11T20:47:30.718Z,19.85
2022-08-11T20:50:20.339Z,19.81
2022-08-11T20:53:06.512Z,19.78
2022-08-11T20:55:53.895Z,19.71
2022-08-11T21:01:47.117Z,19.57
2022-08-11T21:04:37.582Z,19.53
2022-08-11T21:07:41.437Z,19.48
2022-08-11T21:10:29.238Z,19.41
2022-08-11T21:13:25.594Z,19.35
2022-08-11T21:16:25.368Z,19.28
2022-08-11T21:19:59.687Z,19.20
2022-08-11T21:22:33.659Z,19.10
2022-08-11T21:25:19.799Z,19.02
2022-08-11T21:28:09.255Z,18.97
2022-08-11T21:30:57.730Z,18.90
2022-08-11T21:33:45.941Z,18.86
2022-08-11T21:36:33.032Z,18.79
2022-08-11T21:39:24.924Z,18.79
2022-08-11T21:42:13.417Z,18.77
2022-08-11T21:45:00.578Z,18.75
2022-08-11T21:47:47.200Z,18.72
2022-08-11T21:50:32.390Z,18.72
2022-08-11T21:53:18.435Z,18.71
2022-08-11T21:56:04.767Z,18.71
2022-08-11T21:58:51.966Z,18.71
2022-08-11T22:01:37.661Z,18.70
2022-08-11T22:04:24.333Z,18.73
2022-08-11T22:07:10.712Z,18.69
2022-08-11T22:09:56.524Z,18.63
2022-08-11T22:12:44.973Z,18.59
2022-08-11T22:15:31.185Z,18.42
2022-08-11T22:18:16.509Z,18.48
2022-08-11T22:21:04.078Z,18.41
2022-08-11T22:23:54.866Z,18.35
2022-08-11T22:26:41.209Z,18.25
2022-08-11T22:29:41.315Z,18.19
2022-08-11T22:32:33.247Z,18.12
2022-08-11T22:35:20.820Z,18.03
2022-08-11T22:38:07.729Z,17.95
2022-08-11T22:40:53.544Z,17.88
2022-08-11T22:43:38.670Z,17.79
2022-08-11T22:46:23.814Z,17.73
2022-08-11T22:49:10.166Z,17.72
2022-08-11T22:51:56.390Z,17.67
2022-08-11T22:54:44.164Z,17.65
2022-08-11T22:57:29.858Z,17.57
2022-08-11T23:00:16.152Z,17.52
2022-08-11T23:03:01.046Z,17.46
2022-08-11T23:05:47.709Z,17.39
2022-08-11T23:08:34.431Z,17.34
2022-08-11T23:11:20.590Z,17.31
2022-08-11T23:14:06.806Z,17.26
2022-08-11T23:16:52.208Z,17.21
2022-08-11T23:20:09.651Z,17.18
2022-08-11T23:22:50.228Z,17.12
2022-08-11T23:25:36.636Z,17.08
2022-08-11T23:28:24.604Z,17.05
2022-08-11T23:31:13.198Z,17.02
2022-08-11T23:34:06.538Z,16.99
2022-08-11T23:36:51.742Z,16.95
2022-08-11T23:39:37.068Z,16.89
2022-08-11T23:42:22.308Z,16.90
2022-08-11T23:45:09.973Z,16.85
2022-08-11T23:47:57.576Z,16.83
2022-08-11T23:50:43.294Z,16.79
2022-08-11T23:53:29.360Z,16.73
2022-08-11T23:56:14.437Z,16.70
2022-08-11T23:58:59.630Z,16.63
